Hlavní strana
METAR-TAF:

METAR-TAF

Letiště :

Çorlu, Turecko

zeměpisná šířka: 41-08N, zeměpisná délka: 027-55E, výška: 173 m

Aktuální stav počasí

Zpráva byla vytvořena před 35 minutami, v 23:50 UTC
Západní vítr 6 kt
Teplota 9°C
Vlhkost vzduchu 100%
Tlak 1019 hPa
Viditelnost: 7000 m

METAR: LTBU 212350Z 27006KT 7000 NSC 09/09 Q1019 RMK RWY22 25006KT

Čas: 03:25 (00:25 UTC)

Předpověď počasí

Zpráva byla vytvořena před 1 hodinou a 45 minutami, v 22:40 UTC
Předpověď platná od 22 v 00 UTC do 22 v 24 UTC
Západojihozápadní vítr 8 kt
Viditelnost 10 km a více
Žádná oblačnost pod 1500 m, nevyskytují se cumulonimby.
Dočasný
od 22 v 02 UTC do 22 v 06 UTC
Viditelnost: 4000 m
Skoro jasno ve výšce 1800 ft
kouřmo
Změna
od 22 v 21 UTC do 22 v 23 UTC
Viditelnost: 4000 m
Polojasno ve výšce 1800 ft
kouřmo

TAF: LTBU 212240Z 2200/2224 24008KT CAVOK TEMPO 2202/2206 4000 BR FEW018 BECMG 2221/2223 4000 BR SCT018

Stav a předpovědi počasí z více než 4 000 letišť (zprávy METAR a TAF).

Červené a žluté tečky na mapě představují dostupné meteorologické stanice.

Když kurzor umístíte na tečku, zobrazí se název stanice.

Pak kliknutím zobrazíte stav a předpověď počasí.

Chcete-li změnit mapu, kliknutím na zelené tlačítko se znaménkem +mapu přiblížíte, kliknutím na zelené tlačítko se znaménkem – mapu oddálíte a kliknutím na zelené šipky přejdete na sousední mapy.


METAR-TAF: